Allenstown, New Hampshire
Current Conditions -  °F | °C
As of 2:51 PM on Wednesday 17 Dec 2014 (Local Time) from KCON Reporting Station
Overcast Overcast  
Wind Chill: 38°   Ceiling: 3000
Heat Index: 42°   Visibility: 10mi
Dew Point: 40°   Wind: 7mph
Humidity: 92%   Direction: 310°NW
Pressure: 29.71"   Gusts: NA
Location:  43.1606°N, 71.4143°W
Report Text: KCON 171951Z AUTO 31006KT 10SM OVC030 06/04 A2971 RMK AO2 RAB1854E34 SLP063 P0000 T00560044
Loading
Personal Weather Stations






























Interactive Weather Map New forecast layout! Learn more

10-Day Weather Forecast

Advertisements
Track Severe Weather on mobile